This is the latest recevied weather packets stored in our database for station/object 9M4RBN-3. If no packets are shown the sender has not sent any weather packets the latest 10 day(s).
| Time | Temp. | Humidity | Pressure | Rain* | Wind** | Luminosity | Snow |
|---|---|---|---|---|---|---|---|
| 1787877247 | 26.11° C | 71% | 1019 hPa | - | - | - | - |
| 1787876347 | 25.56° C | 69% | 1018.6 hPa | - | - | - | - |
| 1787875447 | 25° C | 68% | 1018.5 hPa | - | - | - | - |
| 1787874547 | 24.44° C | 58% | 1018.1 hPa | - | - | - | - |
| 1787873647 | 24.44° C | 47% | 1017.9 hPa | - | - | - | - |
| 1787872747 | 25° C | 51% | 1017.8 hPa | - | - | - | - |
| 1787871847 | 25.56° C | 65% | 1017.5 hPa | - | - | - | - |
| 1787870947 | 25° C | 67% | 1017.4 hPa | - | - | - | - |
| 1787870047 | 24.44° C | 64% | 1017.5 hPa | - | - | - | - |
| 1787869147 | 23.89° C | 49% | 1017.5 hPa | - | - | - | - |
| 1787868246 | 23.89° C | 44% | 1017.3 hPa | - | - | - | - |
| 1787867346 | 23.89° C | 44% | 1017.3 hPa | - | - | - | - |
| 1787866446 | 24.44° C | 43% | 1017.3 hPa | - | - | - | - |
| 1787865546 | 25° C | 44% | 1017.2 hPa | - | - | - | - |
| 1787864646 | 25° C | 45% | 1017.2 hPa | - | - | - | - |
| 1787863746 | 25.56° C | 45% | 1017 hPa | - | - | - | - |
| 1787862846 | 26.11° C | 47% | 1017 hPa | - | - | - | - |
| 1787861946 | 27.22° C | 56% | 1017.1 hPa | - | - | - | - |
| 1787861046 | 27.78° C | 69% | 1017.3 hPa | - | - | - | - |
| 1787860146 | 27.78° C | 70% | 1017.2 hPa | - | - | - | - |
| 1787859246 | 27.78° C | 70% | 1017.4 hPa | - | - | - | - |
| 1787858346 | 27.78° C | 70% | 1017.6 hPa | - | - | - | - |
| 1787857446 | 27.78° C | 71% | 1017.7 hPa | - | - | - | - |
| 1787856546 | 27.78° C | 72% | 1017.6 hPa | - | - | - | - |
| 1787855646 | 27.78° C | 72% | 1017.8 hPa | - | - | - | - |
* Rain since midnight (hover to see other rain measurements)
** Current wind speed in m/s (hover to see current wind gust speed)